• Join FlightAware (Why Join?)
  • Login
  • US Flag 
11:46PM EDT


 

Airport Tracker/Info


-or-


 

Live Flight TrackerFlight Track Log ✈ SWA1719 ✈ 26-Apr-2013 ✈ KABQ - KHOU

Flight Track Log - Related Links

Times and Time Zones

All times are in EDT time to prevent confusion due to time zone crossing. See the SWA1719 flight status page for this flight to view local times or setup timezone preferences in your user account.

Time Position Orientation Groundspeed Altitude Reporting Facility
EDT Latitude Longitude Course Direction KTS MPH feet Rate Location/Type
09:02AM 35.0422 -106.5847 148° Southeast 166 191 5,900  Level Albuquerque Center
09:03AM 34.9908 -106.5461 148° Southeast 237 273 8,100 1,560 Climbing Albuquerque Center
09:04AM 34.9408 -106.5411 175° South 249 287 9,000 1,260 Climbing Albuquerque Center
09:05AM 34.8586 -106.5378 178° South 272 313 10,300 2,160 Climbing Albuquerque Center
09:06AM 34.7939 -106.4592 135° Southeast 333 383 13,400 3,060 Climbing Albuquerque Center
09:07AM 34.7456 -106.3425 117° Southeast 373 429 16,500 2,820 Climbing Albuquerque Center
09:08AM 34.6956 -106.2222 117° Southeast 394 453 19,200 2,460 Climbing Albuquerque Center
09:09AM 34.6439 -106.0925 116° Southeast 415 478 21,500 2,340 Climbing Albuquerque Center
09:10AM 34.5906 -105.9519 115° Southeast 444 511 24,000 2,220 Climbing Albuquerque Center
09:11AM 34.5356 -105.8092 115° Southeast 458 527 26,100 1,920 Climbing Albuquerque Center
09:12AM 34.4758 -105.6617 116° Southeast 475 547 27,900 1,740 Climbing Albuquerque Center
09:13AM 34.3758 -105.5606 140° Southeast 464 534 29,700 1,680 Climbing Albuquerque Center
09:14AM 34.2686 -105.4728 146° Southeast 460 529 31,400 1,980 Climbing Albuquerque Center
09:15AM 34.1614 -105.3850 146° Southeast 462 532 33,800 1,920 Climbing Albuquerque Center
09:16AM 34.0578 -105.3006 146° Southeast 455 524 35,400 1,560 Climbing Albuquerque Center
09:17AM 33.9406 -105.1992 144° Southeast 463 533 37,000 1,380 Climbing Albuquerque Center
09:18AM 33.8414 -105.1022 141° Southeast 461 531 38,200 960 Climbing Albuquerque Center
09:19AM 33.7403 -105.0072 142° Southeast 462 532 39,000 360 Climbing Albuquerque Center
09:20AM 33.6411 -104.9119 141° Southeast 459 528 39,000  Level Albuquerque Center
09:21AM 33.5414 -104.8156 141° Southeast 463 533 39,000  Level Albuquerque Center
09:22AM 33.4333 -104.7133 142° Southeast 461 531 39,000  Level Albuquerque Center
09:23AM 33.3617 -104.5789 123° Southeast 493 567 39,000  Level Albuquerque Center
09:24AM 33.3025 -104.4325 116° Southeast 495 570 39,000  Level Albuquerque Center
09:25AM 33.2386 -104.2786 116° Southeast 496 571 39,000  Level Albuquerque Center
09:26AM 33.1778 -104.1317 116° Southeast 495 570 39,000  Level Albuquerque Center
09:27AM 33.1181 -103.9850 116° Southeast 494 568 39,000  Level Albuquerque Center
09:28AM 33.0583 -103.8394 116° Southeast 489 563 39,000  Level Albuquerque Center
09:29AM 32.9997 -103.7003 117° Southeast 492 566 39,000  Level Albuquerque Center
09:30AM 32.9375 -103.5536 117° Southeast 495 570 39,000  Level Albuquerque Center
09:31AM 32.8772 -103.4078 116° Southeast 494 568 39,000  Level Albuquerque Center
09:32AM 32.8086 -103.2386 116° Southeast 492 566 39,000  Level Fort Worth Center
09:33AM 32.7422 -103.0936 119° Southeast 492 566 39,000  Level Fort Worth Center
09:34AM 32.6819 -102.9492 116° Southeast 492 566 39,000  Level Fort Worth Center
09:35AM 32.6192 -102.8072 118° Southeast 492 566 39,000  Level Fort Worth Center
09:36AM 32.5583 -102.6656 117° Southeast 492 566 39,000  Level Fort Worth Center
09:37AM 32.4900 -102.5064 117° Southeast 492 566 39,000  Level Fort Worth Center
09:38AM 32.4289 -102.3603 116° Southeast 492 566 39,000  Level Fort Worth Center
09:39AM 32.3672 -102.2314 120° Southeast 500 575 39,000  Level Fort Worth Center
09:40AM 32.3058 -102.0881 117° Southeast 494 568 39,000  Level Fort Worth Center
09:41AM 32.2364 -101.9300 117° Southeast 497 572 39,000  Level Fort Worth Center
09:42AM 32.1747 -101.7869 117° Southeast 497 572 39,000  Level Fort Worth Center
09:43AM 32.1150 -101.6442 116° Southeast 492 566 39,000  Level Fort Worth Center
09:44AM 32.0400 -101.5133 124° Southeast 487 560 39,000  Level Fort Worth Center
09:45AM 31.9517 -101.3992 132° Southeast 481 554 39,000  Level Fort Worth Center
09:46AM 31.8636 -101.2806 131° Southeast 481 554 39,000  Level Fort Worth Center
09:47AM 31.7733 -101.1594 131° Southeast 475 547 39,000  Level Fort Worth Center
09:48AM 31.6869 -101.0461 132° Southeast 475 547 39,000  Level Fort Worth Center
09:49AM 31.5961 -100.9328 133° Southeast 475 547 39,000  Level Fort Worth Center
09:51AM 31.4397 -100.7289 132° Southeast 473 544 39,000  Level Houston Center
09:52AM 31.3508 -100.6117 132° Southeast 473 544 39,000  Level Houston Center
09:53AM 31.2633 -100.4981 132° Southeast 476 548 39,000  Level Houston Center
09:54AM 31.1731 -100.3836 133° Southeast 478 550 39,000  Level Houston Center
09:55AM 31.0833 -100.2683 132° Southeast 479 551 39,000  Level Houston Center
09:56AM 30.9764 -100.1286 132° Southeast 480 552 39,000  Level Houston Center
09:57AM 30.8842 -100.0131 133° Southeast 484 557 39,000  Level Houston Center
09:58AM 30.7939 -99.8967 132° Southeast 483 556 39,000  Level Houston Center
09:59AM 30.7022 -99.7811 133° Southeast 483 556 39,000  Level Houston Center
10:00AM 30.6119 -99.6661 132° Southeast 481 554 39,000  Level Houston Center
10:01AM 30.5222 -99.5531 133° Southeast 476 548 39,000  Level Houston Center
10:02AM 30.4319 -99.4392 133° Southeast 477 549 39,000  Level Houston Center
10:03AM 30.3419 -99.3283 133° Southeast 474 545 39,000  Level Houston Center
10:04AM 30.2528 -99.2169 133° Southeast 470 541 39,000  Level Houston Center
10:05AM 30.1483 -99.0828 132° Southeast 466 536 39,000  Level Houston Center
10:06AM 30.0589 -98.9742 134° Southeast 467 537 39,000  Level Houston Center
10:08AM 29.9642 -98.8561 133° Southeast 468 539 39,000  Level Houston Center
10:09AM 29.8783 -98.7433 131° Southeast 469 540 39,000 -60 Level Houston Center
10:10AM 29.8481 -98.5892 103° East 497 572 38,900 -600 Descending Houston Center
10:11AM 29.8247 -98.4194 99° East 500 575 37,800 -1,020 Descending Houston Center
10:12AM 29.8028 -98.2614 99° East 498 573 36,900 -960 Descending Houston Center
10:13AM 29.7800 -98.1019 99° East 504 580 35,900 -960 Descending Houston Center
10:14AM 29.7558 -97.9297 99° East 505 581 35,000 -540 Descending Houston Center
10:15AM 29.7308 -97.7903 102° East 504 580 34,900 -600 Descending Houston Center
10:16AM 29.6742 -97.6533 115° Southeast 479 551 33,800 -1,020 Descending Houston Center
10:17AM 29.6167 -97.5214 117° Southeast 468 539 32,800 -960 Descending Houston Center
10:18AM 29.5467 -97.3600 116° Southeast 474 545 31,900 -960 Descending Houston Center
10:19AM 29.4864 -97.2208 116° Southeast 486 559 30,900 -1,080 Descending Houston Center
10:20AM 29.4269 -97.0844 117° Southeast 482 555 29,800 -1,920 Descending Houston Center
10:21AM 29.3706 -96.9411 114° Southeast 469 540 27,000 -2,640 Descending Houston Center
10:22AM 29.3150 -96.8042 115° Southeast 458 527 24,400 -2,340 Descending Houston Center
10:23AM 29.2636 -96.6786 115° Southeast 447 514 22,200 -1,860 Descending Houston Center
10:24AM 29.2158 -96.5617 115° Southeast 422 486 20,600 -1,740 Descending Houston Center
10:25AM 29.1694 -96.4511 116° Southeast 397 457 18,700 -1,920 Descending Houston Center
10:26AM 29.1600 -96.3386 95° East 378 435 16,700 -2,100 Descending Houston Center
10:27AM 29.1953 -96.2656 61° Northeast 367 422 15,400 -1,860 Descending Houston Center
10:27AM 29.2072 -96.2394 62° Northeast 360 414 14,800 -1,920 Descending Houston Center
10:28AM 29.2519 -96.1444 62° Northeast 346 398 13,100 -2,160 Descending Houston Center
10:28AM 29.2625 -96.1222 61° Northeast 353 406 12,600 -960 Descending Houston Center
10:29AM 29.3072 -96.0306 61° Northeast 334 384 12,000 -360 Descending Houston Center
10:30AM 29.3678 -95.9542 48° Northeast 314 361 11,900 -420 Descending Houston Center
10:31AM 29.4261 -95.8781 49° Northeast 346 398 11,200 -900 Descending Houston Center
10:32AM 29.4950 -95.7872 49° Northeast 349 402 10,000 -1,200 Descending Houston Center
10:33AM 29.5536 -95.7097 49° Northeast 327 376 8,500 -1,560 Descending Houston Center
10:34AM 29.6139 -95.6306 49° Northeast 312 359 7,000 -1,440 Descending Houston Center
10:35AM 29.6750 -95.5447 51° Northeast 305 351 5,600 -1,080 Descending Houston Center
10:36AM 29.7228 -95.4811 49° Northeast 268 308 4,700 -1,140 Descending Houston Center
10:37AM 29.7528 -95.4242 59° Northeast 186 214 3,400 -1,320 Descending Houston Center
10:38AM 29.7275 -95.3767 121° Southeast 167 192 2,200 -1,020 Descending Houston Center
10:39AM 29.6994 -95.3464 137° Southeast 151 174 1,500 -780 Descending Houston Center
10:41AM 29.6711 -95.3097 132° Southeast 145 167 600 -660 Descending Houston Center
10:42AM 29.6519 -95.2875 135° Southeast 134 154 100 -540 Descending Houston Center
10:44AM 29.6454 -95.2789 115° Southeast  Level Estimated